Time;durP1;ratioP1;P1;durP2;ratioP2;P2;SDS_P1;SDS_P2;PMS_P1;PMS_P2;Temp;Humidity;BMP_temperature;BMP_pressure;BME280_temperature;BME280_humidity;BME280_pressure;Samples;Min_cycle;Max_cycle;Signal;HPM_P1;HPM_P2
2023/03/17 00:01:49;;;;;;;7.68;3.38;;;128.40;2150.40;;;;;;5052073;28;19908;-79
2023/03/17 00:04:16;;;;;;;9.45;4.75;;;128.40;2124.80;;;;;;5057500;28;20044;-78
2023/03/17 00:06:42;;;;;;;9.02;4.50;;;128.50;2124.80;;;;;;5050583;28;20039;-79
2023/03/17 00:09:13;;;;;;;;;;;128.40;2099.20;;;;;;5051417;28;20041;-79
2023/03/17 00:11:39;;;;;;;11.18;4.25;;;128.40;2124.80;;;;;;5048079;28;19995;-78
2023/03/17 00:14:05;;;;;;;13.57;5.82;;;128.50;2124.80;;;;;;5048864;28;20092;-79
2023/03/17 00:16:33;;;;;;;;;;;128.30;2124.80;;;;;;5049919;28;20128;-79
2023/03/17 00:18:59;;;;;;;11.65;5.32;;;128.30;2124.80;;;;;;5053859;28;19954;-78
2023/03/17 00:21:27;;;;;;;;;;;128.40;2124.80;;;;;;5073468;28;20020;-78
2023/03/17 00:23:53;;;;;;;16.73;6.45;;;128.30;2150.40;;;;;;5056709;28;19908;-78
2023/03/17 00:26:19;;;;;;;;;;;128.30;2150.40;;;;;;5074928;28;20475;-79
2023/03/17 00:28:45;;;;;;;14.05;6.15;;;128.10;2176.00;;;;;;5054881;28;19928;-78
2023/03/17 00:31:21;;;;;;;;;;;128.10;2201.60;;;;;;5057497;28;20432;-79
2023/03/17 00:33:48;;;;;;;16.55;6.05;;;128.10;2201.60;;;;;;5057114;28;20384;-77
2023/03/17 00:36:29;;;;;;;11.38;5.18;;;128.00;2201.60;;;;;;5072667;28;20502;-78
2023/03/17 00:38:56;;;;;;;12.93;5.88;;;128.10;2201.60;;;;;;5055908;28;20024;-78
2023/03/17 00:41:22;;;;;;;11.50;5.30;;;128.00;2227.20;;;;;;5074812;28;20029;-79
2023/03/17 00:43:48;;;;;;;18.52;5.60;;;128.00;2227.20;;;;;;5056402;28;20116;-79
2023/03/17 00:46:23;;;;;;;;;;;103.30;2201.60;;;;;;5054301;28;20102;-79
2023/03/17 00:48:49;;;;;;;13.25;4.95;;;103.30;2227.20;;;;;;5056259;28;19955;-79
2023/03/17 00:51:15;;;;;;;;;;;103.30;2227.20;;;;;;5074975;28;20493;-79
2023/03/17 00:53:41;;;;;;;16.77;6.00;;;103.30;2227.20;;;;;;5074206;28;19954;-79
2023/03/17 00:56:17;;;;;;;11.70;5.57;;;103.30;2201.60;;;;;;5050891;28;20482;-78
2023/03/17 00:58:43;;;;;;;12.82;5.93;;;103.30;2227.20;;;;;;5050719;28;20479;-79
2023/03/17 01:01:09;;;;;;;18.33;6.65;;;103.20;2227.20;;;;;;5039511;28;20025;-79
2023/03/17 01:03:37;;;;;;;17.08;6.70;;;103.20;2227.20;;;;;;5055059;28;20103;-79
2023/03/17 01:06:05;;;;;;;12.93;5.57;;;103.20;2227.20;;;;;;5070187;28;20504;-79
2023/03/17 01:08:31;;;;;;;12.80;6.00;;;103.20;2227.20;;;;;;5054297;28;20040;-78
2023/03/17 01:10:57;;;;;;;;;;;103.10;2227.20;;;;;;5069897;28;20031;-79
2023/03/17 01:13:23;;;;;;;11.30;5.10;;;128.00;2252.80;;;;;;5052558;28;19904;-79
2023/03/17 01:15:49;;;;;;;;;;;103.20;2227.20;;;;;;5056430;28;20025;-79
2023/03/17 01:18:17;;;;;;;13.73;6.18;;;103.00;2227.20;;;;;;5073825;28;20354;-78
2023/03/17 01:20:44;;;;;;;18.95;5.57;;;103.00;2227.20;;;;;;5047444;28;20032;-78
2023/03/17 01:23:11;;;;;;;13.32;5.40;;;103.10;2227.20;;;;;;5065664;28;20021;-78
2023/03/17 01:25:38;;;;;;;14.38;6.75;;;103.20;2227.20;;;;;;5073903;28;20016;-79
2023/03/17 01:28:04;;;;;;;16.27;7.13;;;103.00;2227.20;;;;;;5048646;28;20680;-79
2023/03/17 01:30:33;;;;;;;13.75;5.78;;;103.00;2227.20;;;;;;5074709;28;20471;-79
2023/03/17 01:32:59;;;;;;;15.20;6.38;;;103.00;2227.20;;;;;;5056526;28;20067;-78
2023/03/17 01:35:25;;;;;;;;;;;102.90;2227.20;;;;;;5073549;28;20067;-79
2023/03/17 01:37:51;;;;;;;16.80;4.03;;;102.90;2227.20;;;;;;5056595;28;20371;-78
2023/03/17 01:40:22;;;;;;;13.88;5.45;;;102.90;2227.20;;;;;;5056262;28;20032;-79
2023/03/17 01:42:53;;;;;;;10.75;5.53;;;102.90;2227.20;;;;;;5056460;28;20031;-79
2023/03/17 01:45:57;;;;;;;9.20;5.22;;;102.90;2227.20;;;;;;5056418;28;20023;-78
2023/03/17 01:48:24;;;;;;;9.73;5.53;;;102.90;2227.20;;;;;;5073968;28;20478;-78
2023/03/17 01:50:52;;;;;;;13.38;4.80;;;102.90;2227.20;;;;;;5073822;28;20044;-79
2023/03/17 01:53:20;;;;;;;12.00;4.82;;;102.90;2227.20;;;;;;5071137;28;20052;-78
2023/03/17 01:55:47;;;;;;;11.45;4.97;;;103.00;2227.20;;;;;;5067489;28;20052;-78
2023/03/17 01:58:14;;;;;;;10.07;5.10;;;103.00;2227.20;;;;;;5055226;28;20074;-79
2023/03/17 02:00:40;;;;;;;13.10;4.95;;;103.10;2227.20;;;;;;5055116;28;20077;-79
2023/03/17 02:03:05;;;;;;;;;;;103.00;2227.20;;;;;;5073413;28;20028;-79
2023/03/17 02:05:32;;;;;;;11.57;4.93;;;103.00;2227.20;;;;;;5072490;28;19957;-79
2023/03/17 02:07:58;;;;;;;13.10;5.63;;;102.90;2227.20;;;;;;5047126;28;20024;-78
2023/03/17 02:10:26;;;;;;;16.35;5.30;;;103.00;2227.20;;;;;;5073184;28;20043;-78
2023/03/17 02:12:58;;;;;;;13.32;5.07;;;103.00;2227.20;;;;;;5041387;28;20032;-79
2023/03/17 02:15:34;;;;;;;11.45;5.38;;;102.90;2227.20;;;;;;5073002;28;20024;-79
2023/03/17 02:18:00;;;;;;;8.95;3.95;;;102.90;2227.20;;;;;;5070444;28;20036;-79
2023/03/17 02:20:26;;;;;;;;;;;102.90;2227.20;;;;;;5055534;28;20382;-78
2023/03/17 02:22:54;;;;;;;8.23;4.45;;;102.80;2227.20;;;;;;5044062;28;20290;-79
2023/03/17 02:25:23;;;;;;;18.55;6.00;;;102.80;2227.20;;;;;;5046253;28;20029;-79
2023/03/17 02:28:12;;;;;;;11.18;4.80;;;102.90;2227.20;;;;;;5054220;28;20052;-78
2023/03/17 02:30:39;;;;;;;10.13;4.40;;;102.80;2227.20;;;;;;5054614;28;20036;-79
2023/03/17 02:33:05;;;;;;;14.80;6.35;;;102.80;2227.20;;;;;;5072274;28;20092;-79
2023/03/17 02:35:31;;;;;;;12.20;5.15;;;102.80;2227.20;;;;;;5051890;28;20029;-79
2023/03/17 02:37:57;;;;;;;8.85;4.75;;;102.70;2227.20;;;;;;5046813;28;20045;-78
2023/03/17 02:40:23;;;;;;;;;;;102.60;2227.20;;;;;;5072997;28;20055;-78
2023/03/17 02:42:50;;;;;;;13.30;6.78;;;102.70;2227.20;;;;;;5054720;28;19966;-78
2023/03/17 02:45:15;;;;;;;9.68;5.10;;;102.70;2227.20;;;;;;5054733;28;20136;-79
2023/03/17 02:47:41;;;;;;;;;;;102.70;2227.20;;;;;;5073198;28;20456;-78
2023/03/17 02:50:09;;;;;;;12.05;5.25;;;102.60;2227.20;;;;;;5072663;28;19927;-78
2023/03/17 02:52:35;;;;;;;13.65;4.82;;;102.50;2227.20;;;;;;5054703;28;20112;-78
2023/03/17 02:55:00;;;;;;;11.95;5.10;;;102.50;2227.20;;;;;;5039389;28;20025;-79
2023/03/17 02:57:26;;;;;;;;;;;102.40;2227.20;;;;;;5055010;28;20036;-78
2023/03/17 02:59:52;;;;;;;8.90;4.47;;;102.50;2227.20;;;;;;5052495;28;19912;-77
2023/03/17 03:02:17;;;;;;;;;;;102.40;2227.20;;;;;;5053386;28;20032;-79
2023/03/17 03:04:43;;;;;;;10.93;4.72;;;102.40;2227.20;;;;;;5049022;28;19909;-79
2023/03/17 03:07:09;;;;;;;;;;;102.40;2227.20;;;;;;5053812;28;20099;-79
2023/03/17 03:09:35;;;;;;;16.70;6.32;;;77.70;2227.20;;;;;;5036015;28;20011;-79
2023/03/17 03:12:01;;;;;;;11.30;5.53;;;102.40;2227.20;;;;;;5064516;28;20025;-79
2023/03/17 03:14:27;;;;;;;12.48;5.28;;;102.50;2227.20;;;;;;5066565;28;20070;-79
2023/03/17 03:16:53;;;;;;;;;;;102.50;2227.20;;;;;;5053431;28;20426;-79
2023/03/17 03:19:19;;;;;;;14.25;5.03;;;77.70;2227.20;;;;;;5035168;28;20003;-79
2023/03/17 03:21:45;;;;;;;;;;;102.40;2227.20;;;;;;5048441;28;20033;-78
2023/03/17 03:24:11;;;;;;;11.70;4.55;;;77.70;2227.20;;;;;;5047533;28;20416;-79
2023/03/17 03:26:37;;;;;;;12.40;4.78;;;77.70;2227.20;;;;;;5035635;28;20064;-78
2023/03/17 03:29:03;;;;;;;;;;;77.70;2227.20;;;;;;5047435;28;20080;-79
2023/03/17 03:31:28;;;;;;;11.18;5.65;;;77.70;2227.20;;;;;;5066623;28;19912;-79
2023/03/17 03:33:54;;;;;;;;;;;77.70;2227.20;;;;;;5048165;28;20472;-78
2023/03/17 03:36:20;;;;;;;15.82;5.43;;;102.40;2227.20;;;;;;5072691;28;19957;-78
2023/03/17 03:38:46;;;;;;;;;;;77.70;2227.20;;;;;;5043216;28;20021;-79
2023/03/17 03:41:12;;;;;;;6.75;3.83;;;102.40;2227.20;;;;;;5053983;28;19969;-79
2023/03/17 03:43:37;;;;;;;;;;;77.70;2227.20;;;;;;5073874;28;20017;-79
2023/03/17 03:46:03;;;;;;;11.43;5.10;;;77.70;2227.20;;;;;;5062724;28;19904;-79
2023/03/17 03:48:29;;;;;;;11.13;4.78;;;77.60;2227.20;;;;;;5058568;28;20074;-79
2023/03/17 03:50:59;;;;;;;;;;;77.70;2227.20;;;;;;5039801;28;20029;-79
2023/03/17 03:53:25;;;;;;;11.27;5.15;;;102.40;2227.20;;;;;;5051644;28;19912;-78
2023/03/17 03:55:51;;;;;;;10.52;5.00;;;77.70;2227.20;;;;;;5038346;28;20017;-78
2023/03/17 03:58:17;;;;;;;12.52;4.95;;;77.70;2227.20;;;;;;5045055;28;20035;-79
2023/03/17 04:00:43;;;;;;;;;;;77.70;2227.20;;;;;;5045080;28;20021;-79
2023/03/17 04:03:09;;;;;;;13.73;4.50;;;77.70;2227.20;;;;;;5045126;28;19905;-78
2023/03/17 04:05:34;;;;;;;;;;;102.40;2227.20;;;;;;5045340;28;20028;-79
2023/03/17 04:08:00;;;;;;;11.95;5.13;;;102.40;2227.20;;;;;;5044744;28;20359;-79
2023/03/17 04:10:26;;;;;;;;;;;77.60;2227.20;;;;;;5058222;28;20375;-79
2023/03/17 04:12:51;;;;;;;11.25;5.35;;;77.60;2227.20;;;;;;5044203;28;20313;-78
2023/03/17 04:15:18;;;;;;;;;;;77.40;2227.20;;;;;;5038293;28;20529;-78
2023/03/17 04:17:44;;;;;;;11.27;4.13;;;77.50;2227.20;;;;;;5038580;28;20405;-79
2023/03/17 04:20:10;;;;;;;;;;;77.40;2227.20;;;;;;5058135;28;20024;-79
2023/03/17 04:22:36;;;;;;;8.93;4.18;;;77.50;2227.20;;;;;;5076000;28;19904;-78
2023/03/17 04:25:02;;;;;;;;;;;77.40;2227.20;;;;;;5058292;28;20111;-78
2023/03/17 04:27:27;;;;;;;10.40;5.07;;;77.50;2227.20;;;;;;5044814;28;20385;-78
2023/03/17 04:29:53;;;;;;;;;;;77.40;2227.20;;;;;;5057649;28;20037;-78
2023/03/17 04:32:19;;;;;;;11.73;5.05;;;77.40;2227.20;;;;;;5061960;28;19905;-78
2023/03/17 04:34:45;;;;;;;;;;;77.40;2227.20;;;;;;5043868;28;20035;-78
2023/03/17 04:37:11;;;;;;;11.75;5.05;;;77.40;2227.20;;;;;;5057621;28;19904;-78
2023/03/17 04:39:37;;;;;;;12.38;5.63;;;77.30;2227.20;;;;;;5057589;28;20082;-78
2023/03/17 04:42:04;;;;;;;13.63;5.47;;;77.40;2227.20;;;;;;5044783;28;20037;-78
2023/03/17 04:44:30;;;;;;;9.48;5.05;;;77.40;2227.20;;;;;;5050549;28;20098;-78
2023/03/17 04:46:56;;;;;;;15.82;5.50;;;77.30;2227.20;;;;;;5050580;28;20032;-78
2023/03/17 04:49:22;;;;;;;;;;;77.50;2227.20;;;;;;5074304;28;20044;-78
2023/03/17 04:51:48;;;;;;;11.43;5.43;;;77.60;2227.20;;;;;;5057143;28;19911;-78
2023/03/17 04:54:13;;;;;;;;;;;77.70;2227.20;;;;;;5051012;28;20032;-78
2023/03/17 04:56:39;;;;;;;12.80;5.45;;;77.60;2227.20;;;;;;5037018;28;20367;-78
2023/03/17 04:59:04;;;;;;;;;;;77.70;2227.20;;;;;;5050526;28;20048;-78
2023/03/17 05:01:30;;;;;;;12.68;5.07;;;77.70;2227.20;;;;;;5037122;28;19904;-78
2023/03/17 05:03:56;;;;;;;;;;;77.60;2227.20;;;;;;5057300;28;20048;-78
2023/03/17 05:06:22;;;;;;;11.23;4.57;;;77.70;2227.20;;;;;;5056978;28;19994;-78
2023/03/17 05:08:47;;;;;;;;;;;77.40;2227.20;;;;;;5075144;28;20035;-78
2023/03/17 05:11:14;;;;;;;14.07;5.80;;;77.40;2227.20;;;;;;5056786;28;19908;-78
2023/03/17 05:13:40;;;;;;;13.07;6.03;;;77.30;2227.20;;;;;;5056062;28;20032;-77
2023/03/17 05:16:06;;;;;;;;;;;77.30;2227.20;;;;;;5057376;28;20028;-78
2023/03/17 05:18:32;;;;;;;13.37;5.67;;;77.30;2227.20;;;;;;5056527;28;20367;-79
2023/03/17 05:20:58;;;;;;;16.70;6.45;;;77.40;2227.20;;;;;;5061717;28;20250;-79
2023/03/17 05:23:24;;;;;;;;;;;77.40;2227.20;;;;;;5060847;28;20050;-79
2023/03/17 05:25:51;;;;;;;19.42;7.88;;;77.30;2227.20;;;;;;5055806;28;19908;-78
2023/03/17 05:28:19;;;;;;;20.25;8.95;;;77.40;2227.20;;;;;;5056381;28;20145;-78
2023/03/17 05:30:46;;;;;;;25.33;9.85;;;77.70;2227.20;;;;;;5043420;28;20099;-78
2023/03/17 05:33:13;;;;;;;19.55;8.80;;;102.40;2227.20;;;;;;5049940;28;20045;-80
2023/03/17 05:35:39;;;;;;;21.25;9.32;;;102.60;2227.20;;;;;;5036686;28;20025;-78
2023/03/17 05:38:06;;;;;;;;;;;102.70;2227.20;;;;;;5057043;28;20025;-79
2023/03/17 05:40:31;;;;;;;16.30;6.93;;;102.80;2227.20;;;;;;5042414;28;19958;-79
2023/03/17 05:42:57;;;;;;;;;;;102.80;2227.20;;;;;;5036755;28;20061;-78
2023/03/17 05:45:23;;;;;;;29.38;12.35;;;102.70;2227.20;;;;;;5036513;28;19905;-78
2023/03/17 05:47:48;;;;;;;;;;;102.70;2227.20;;;;;;5043799;28;20025;-78
2023/03/17 05:50:14;;;;;;;45.33;18.48;;;102.80;2227.20;;;;;;5042917;28;19920;-78
2023/03/17 05:52:40;;;;;;;;;;;102.80;2227.20;;;;;;5036532;28;20398;-79
2023/03/17 05:55:07;;;;;;;22.63;9.93;;;102.70;2227.20;;;;;;5049400;28;19904;-78
2023/03/17 05:57:33;;;;;;;19.10;8.02;;;102.80;2227.20;;;;;;5042284;28;20039;-78
2023/03/17 05:59:59;;;;;;;38.80;18.95;;;102.90;2227.20;;;;;;5042403;28;20029;-78
2023/03/17 06:02:24;;;;;;;;;;;102.70;2227.20;;;;;;5042546;28;20029;-79
2023/03/17 06:04:51;;;;;;;16.27;8.73;;;102.70;2227.20;;;;;;5055556;28;20342;-79
2023/03/17 06:07:16;;;;;;;20.67;9.02;;;102.80;2227.20;;;;;;5041256;28;20017;-79
2023/03/17 06:09:42;;;;;;;;;;;102.80;2227.20;;;;;;5073040;28;20393;-79
2023/03/17 06:12:08;;;;;;;18.42;8.60;;;102.80;2227.20;;;;;;5035861;28;19912;-78
2023/03/17 06:14:34;;;;;;;21.42;8.32;;;102.80;2227.20;;;;;;5048795;28;20024;-78
2023/03/17 06:17:00;;;;;;;;;;;102.90;2227.20;;;;;;5056220;28;20110;-79
2023/03/17 06:19:26;;;;;;;29.95;10.13;;;103.10;2227.20;;;;;;5052892;28;19916;-78
2023/03/17 06:21:51;;;;;;;;;;;103.20;2227.20;;;;;;5048198;28;20020;-79
2023/03/17 06:24:17;;;;;;;18.30;8.63;;;103.30;2227.20;;;;;;5071582;28;19966;-78
2023/03/17 06:26:42;;;;;;;;;;;128.00;2252.80;;;;;;5068866;28;20029;-79
2023/03/17 06:29:08;;;;;;;22.95;6.93;;;103.30;2227.20;;;;;;5054729;28;19928;-79
2023/03/17 06:31:37;;;;;;;;;;;103.20;2227.20;;;;;;5073335;28;20040;-78
2023/03/17 06:34:03;;;;;;;13.65;7.13;;;103.30;2227.20;;;;;;5054209;28;19916;-78
2023/03/17 06:36:29;;;;;;;;;;;128.00;2252.80;;;;;;5051474;28;20024;-79
2023/03/17 06:38:55;;;;;;;19.52;6.47;;;128.00;2252.80;;;;;;5048923;28;19908;-79
2023/03/17 06:41:20;;;;;;;;;;;128.30;2252.80;;;;;;5073138;28;20021;-79
2023/03/17 06:43:46;;;;;;;18.90;8.02;;;128.40;2252.80;;;;;;5055015;28;20388;-80
2023/03/17 06:46:12;;;;;;;;;;;128.20;2252.80;;;;;;5042163;28;20021;-79
2023/03/17 06:48:38;;;;;;;16.33;6.88;;;128.40;2252.80;;;;;;5072742;28;19912;-79
2023/03/17 06:51:04;;;;;;;;;;;128.60;2252.80;;;;;;5046148;28;20035;-77
2023/03/17 06:53:30;;;;;;;13.52;6.30;;;128.70;2252.80;;;;;;5052806;28;19944;-78
2023/03/17 06:55:56;;;;;;;18.45;7.28;;;128.80;2252.80;;;;;;5054480;28;20032;-77
2023/03/17 06:58:22;;;;;;;14.57;7.25;;;128.60;2227.20;;;;;;5067948;28;20058;-76
2023/03/17 07:00:52;;;;;;;15.27;7.22;;;128.90;2227.20;;;;;;5072084;28;20032;-77
2023/03/17 07:03:19;;;;;;;14.45;7.38;;;153.90;2176.00;;;;;;5050779;28;20032;-76
2023/03/17 07:05:45;;;;;;;14.55;7.05;;;154.20;2124.80;;;;;;5071982;28;20497;-76
2023/03/17 07:08:11;;;;;;;17.67;7.25;;;154.20;2150.40;;;;;;5068831;28;20028;-76
2023/03/17 07:10:37;;;;;;;;;;;154.30;2124.80;;;;;;5069503;28;20040;-77
2023/03/17 07:13:06;;;;;;;12.77;6.85;;;154.40;2124.80;;;;;;5053036;28;19909;-79
2023/03/17 07:15:33;;;;;;;11.07;5.70;;;154.50;2150.40;;;;;;5053903;28;20432;-79
2023/03/17 07:17:59;;;;;;;13.98;7.18;;;179.20;2124.80;;;;;;5052599;28;20043;-79
2023/03/17 07:20:25;;;;;;;;;;;179.50;2099.20;;;;;;5055463;28;20025;-79
2023/03/17 07:22:51;;;;;;;16.13;7.70;;;179.70;2073.60;;;;;;5055176;28;19904;-77
2023/03/17 07:25:16;;;;;;;;;;;179.80;2048.00;;;;;;5055617;28;20032;-78
2023/03/17 07:27:42;;;;;;;11.48;6.43;;;179.90;2048.00;;;;;;5050405;28;20255;-79
2023/03/17 07:30:08;;;;;;;;;;;179.90;2048.00;;;;;;5045941;28;20077;-77
2023/03/17 07:32:35;;;;;;;15.43;7.38;;;180.00;2073.60;;;;;;5044247;28;19909;-78
2023/03/17 07:35:00;;;;;;;21.25;7.80;;;179.90;2073.60;;;;;;5052491;28;20025;-78
2023/03/17 07:37:26;;;;;;;;;;;179.90;2048.00;;;;;;5056384;28;20128;-80
2023/03/17 07:39:51;;;;;;;11.75;6.65;;;180.00;2048.00;;;;;;5055901;28;19915;-80
2023/03/17 07:42:17;;;;;;;;;;;180.10;2073.60;;;;;;5046474;28;20028;-79
2023/03/17 07:44:43;;;;;;;16.05;6.82;;;204.90;1996.80;;;;;;5053249;28;19911;-79
2023/03/17 07:47:13;;;;;;;15.13;7.45;;;205.00;1971.20;;;;;;5065236;28;20051;-80
2023/03/17 07:49:39;;;;;;;19.05;7.78;;;205.20;1971.20;;;;;;5055837;28;20115;-79
2023/03/17 07:52:05;;;;;;;;;;;205.20;1971.20;;;;;;5050112;28;20025;-81
2023/03/17 07:54:31;;;;;;;17.37;7.47;;;205.20;1945.60;;;;;;5055885;28;19905;-80
2023/03/17 07:56:56;;;;;;;;;;;205.20;1971.20;;;;;;5045103;28;20025;-80
2023/03/17 07:59:22;;;;;;;20.02;9.52;;;205.20;1971.20;;;;;;5051628;28;19913;-78
2023/03/17 08:01:48;;;;;;;;;;;205.10;1996.80;;;;;;5055631;28;20538;-78
2023/03/17 08:04:14;;;;;;;23.17;9.30;;;205.00;1996.80;;;;;;5054508;28;19917;-80
2023/03/17 08:06:41;;;;;;;14.38;7.75;;;205.10;1996.80;;;;;;5053849;28;20442;-78
2023/03/17 08:09:09;;;;;;;12.32;5.97;;;205.20;2022.40;;;;;;5053554;28;20040;-78
2023/03/17 08:11:36;;;;;;;13.88;8.30;;;205.30;1996.80;;;;;;5043988;28;20036;-83
2023/03/17 08:14:03;;;;;;;14.38;8.68;;;205.30;1996.80;;;;;;5049104;28;20387;-80
2023/03/17 08:16:29;;;;;;;17.08;7.68;;;205.30;1996.80;;;;;;5050009;28;20036;-82
2023/03/17 08:18:57;;;;;;;15.18;7.03;;;205.40;1945.60;;;;;;5054457;28;20072;-81
2023/03/17 08:21:26;;;;;;;11.70;6.25;;;205.50;1971.20;;;;;;5057651;28;20043;-80
2023/03/17 08:23:55;;;;;;;14.88;7.15;;;205.40;1945.60;;;;;;5055262;28;20123;-79
2023/03/17 08:26:22;;;;;;;13.13;6.88;;;205.50;1971.20;;;;;;5071379;28;20025;-78
2023/03/17 08:28:49;;;;;;;14.85;7.28;;;205.40;1971.20;;;;;;5056917;28;20048;-79
2023/03/17 08:31:17;;;;;;;19.75;8.13;;;205.40;2022.40;;;;;;5070415;28;20020;-78
2023/03/17 08:33:47;;;;;;;13.50;6.40;;;205.60;2048.00;;;;;;5074133;28;20075;-79
2023/03/17 08:36:15;;;;;;;14.30;6.20;;;205.60;1996.80;;;;;;5068870;28;20029;-79
2023/03/17 08:38:41;;;;;;;14.32;7.00;;;205.60;1945.60;;;;;;5052426;28;20036;-80
2023/03/17 08:41:11;;;;;;;13.15;5.93;;;205.70;1971.20;;;;;;5055108;28;20107;-79
2023/03/17 08:43:37;;;;;;;13.52;6.75;;;205.70;1971.20;;;;;;5074940;28;20081;-80
2023/03/17 08:46:28;;;;;;;;;;;205.70;1920.00;;;;;;5075256;28;20108;-79
2023/03/17 08:48:56;;;;;;;16.05;7.57;;;205.70;1920.00;;;;;;5069645;28;19927;-76
2023/03/17 08:51:24;;;;;;;18.23;9.88;;;205.70;1945.60;;;;;;5055016;28;20082;-77
2023/03/17 08:53:51;;;;;;;18.33;9.15;;;205.70;1971.20;;;;;;5045957;28;20078;-78
2023/03/17 08:56:17;;;;;;;16.40;7.57;;;205.70;1971.20;;;;;;5051462;28;20474;-77
2023/03/17 08:58:43;;;;;;;;;;;205.70;1945.60;;;;;;5070366;28;20025;-77
2023/03/17 09:01:09;;;;;;;15.52;7.50;;;230.40;1971.20;;;;;;5065566;28;19912;-78
2023/03/17 09:03:37;;;;;;;12.60;7.22;;;230.40;1971.20;;;;;;5074034;28;20032;-76
2023/03/17 09:06:05;;;;;;;22.08;9.38;;;230.50;1945.60;;;;;;5052429;28;20031;-77
2023/03/17 09:08:32;;;;;;;13.05;7.03;;;230.60;1971.20;;;;;;5053162;28;20040;-79
2023/03/17 09:10:58;;;;;;;22.00;8.32;;;230.60;1945.60;;;;;;5073545;28;20036;-78
2023/03/17 09:13:23;;;;;;;;;;;230.70;1894.40;;;;;;5063209;28;20025;-79
2023/03/17 09:15:49;;;;;;;16.73;6.72;;;230.80;1920.00;;;;;;5071963;28;19909;-81
2023/03/17 09:18:14;;;;;;;;;;;230.90;1920.00;;;;;;5071014;28;20040;-76
2023/03/17 09:20:40;;;;;;;12.95;6.82;;;231.00;1894.40;;;;;;5073563;28;19908;-77
2023/03/17 09:23:07;;;;;;;;;;;231.20;1868.80;;;;;;5072178;28;20017;-75
2023/03/17 09:25:37;;;;;;;9.27;5.53;;;231.30;1817.60;;;;;;5049607;28;19943;-75
2023/03/17 09:28:06;;;;;;;17.27;6.63;;;256.00;1843.20;;;;;;5055724;28;20041;-75
2023/03/17 09:30:32;;;;;;;16.65;7.75;;;256.20;1817.60;;;;;;5053815;28;20058;-75
2023/03/17 09:32:58;;;;;;;16.08;5.97;;;256.40;1817.60;;;;;;5042720;28;20051;-77
2023/03/17 09:35:26;;;;;;;14.90;6.35;;;256.50;1792.00;;;;;;5053770;28;20028;-77
2023/03/17 09:37:52;;;;;;;15.48;6.53;;;256.60;1740.80;;;;;;5043600;28;20036;-76
2023/03/17 09:40:21;;;;;;;11.60;5.93;;;256.70;1740.80;;;;;;5055143;28;20031;-77
2023/03/17 09:42:51;;;;;;;12.32;6.38;;;281.70;1740.80;;;;;;5073320;28;20028;-77
2023/03/17 09:45:38;;;;;;;13.32;6.63;;;281.70;1996.80;;;;;;5067805;28;20020;-76
2023/03/17 09:48:40;;;;;;;16.10;8.93;;;281.80;1689.60;;;;;;5070902;28;20048;-79
2023/03/17 09:51:18;;;;;;;21.55;8.35;;;282.00;1689.60;;;;;;5065398;28;20036;-78
2023/03/17 09:53:55;;;;;;;13.65;6.80;;;282.20;1689.60;;;;;;5071483;28;20017;-75
2023/03/17 09:56:22;;;;;;;11.05;6.10;;;282.30;1689.60;;;;;;5064309;28;20021;-77
2023/03/17 09:59:04;;;;;;;12.52;6.00;;;307.20;1689.60;;;;;;5073368;28;20028;-75
2023/03/17 10:01:31;;;;;;;15.02;5.93;;;307.40;1664.00;;;;;;5072628;28;20086;-77
2023/03/17 10:03:56;;;;;;;12.95;5.68;;;307.50;1638.40;;;;;;5072864;28;20086;-77
2023/03/17 10:06:38;;;;;;;11.30;5.10;;;307.60;1638.40;;;;;;5071139;28;20021;-75
2023/03/17 10:09:32;;;;;;;10.00;5.57;;;307.80;1612.80;;;;;;5064616;28;20037;-76
2023/03/17 10:12:11;;;;;;;17.77;6.68;;;308.00;1561.60;;;;;;5065871;28;20033;-76
2023/03/17 10:14:39;;;;;;;10.00;5.55;;;308.10;1510.40;;;;;;5051598;28;20040;-75
2023/03/17 10:17:15;;;;;;;10.88;4.32;;;332.80;1536.00;;;;;;5051926;28;20078;-76
2023/03/17 10:19:58;;;;;;;8.02;4.72;;;333.10;1484.80;;;;;;5072557;28;20032;-76
2023/03/17 10:22:31;;;;;;;8.98;4.22;;;333.10;1484.80;;;;;;5072240;28;20044;-76
2023/03/17 10:25:02;;;;;;;10.07;4.78;;;333.40;1433.60;;;;;;5066653;28;20029;-74
2023/03/17 10:27:33;;;;;;;8.80;4.25;;;333.50;1408.00;;;;;;5068150;28;20029;-74
2023/03/17 10:29:59;;;;;;;7.20;4.50;;;333.70;1331.20;;;;;;5072422;28;20040;-74
2023/03/17 10:32:26;;;;;;;8.02;4.18;;;358.40;1305.60;;;;;;5067936;28;20078;-74
2023/03/17 10:34:53;;;;;;;7.82;2.58;;;358.50;1280.00;;;;;;5062282;28;20021;-74
2023/03/17 10:37:22;;;;;;;8.70;3.88;;;358.80;1254.40;;;;;;5065347;28;20475;-77
2023/03/17 10:39:51;;;;;;;8.43;4.47;;;358.90;1254.40;;;;;;5046199;28;20033;-75
2023/03/17 10:42:27;;;;;;;9.43;3.40;;;359.00;1254.40;;;;;;5069643;28;20451;-74
2023/03/17 10:45:12;;;;;;;7.47;3.70;;;358.90;1254.40;;;;;;5072407;28;20059;-75
2023/03/17 10:47:43;;;;;;;6.43;3.60;;;359.10;1203.20;;;;;;5070763;28;20020;-75
2023/03/17 10:50:18;;;;;;;9.25;4.28;;;359.20;1228.80;;;;;;5045983;28;20033;-75
2023/03/17 10:52:46;;;;;;;7.88;4.88;;;384.00;1228.80;;;;;;5072549;28;20078;-76
2023/03/17 10:55:16;;;;;;;14.02;6.30;;;384.40;1228.80;;;;;;5054088;28;20481;-75
2023/03/17 10:57:59;;;;;;;12.50;6.72;;;384.40;1203.20;;;;;;5074137;28;20025;-75
2023/03/17 11:00:28;;;;;;;11.73;5.18;;;384.20;1203.20;;;;;;5058168;28;20047;-76
2023/03/17 11:02:58;;;;;;;14.90;6.90;;;384.60;1177.60;;;;;;5048623;28;20036;-75
2023/03/17 11:05:27;;;;;;;6.38;3.40;;;384.90;1152.00;;;;;;5053861;28;20494;-75
2023/03/17 11:08:16;;;;;;;9.73;3.78;;;409.70;1152.00;;;;;;5076387;28;20029;-77
2023/03/17 11:10:43;;;;;;;9.60;4.18;;;409.70;1100.80;;;;;;5075996;28;20441;-80
2023/03/17 11:13:14;;;;;;;6.45;3.80;;;409.60;1100.80;;;;;;5076201;28;20048;-78
2023/03/17 11:15:46;;;;;;;8.55;4.57;;;409.90;1100.80;;;;;;5076117;28;20028;-78
2023/03/17 11:18:29;;;;;;;10.63;4.50;;;410.10;1100.80;;;;;;5073427;28;20037;-79
2023/03/17 11:20:58;;;;;;;8.18;4.38;;;410.10;1126.40;;;;;;5049508;28;20025;-80
2023/03/17 11:23:42;;;;;;;12.85;5.47;;;410.00;1100.80;;;;;;5072765;28;20036;-81
2023/03/17 11:26:29;;;;;;;6.80;3.55;;;410.30;1100.80;;;;;;5043267;28;20032;-83
2023/03/17 11:29:07;;;;;;;;;;;410.40;1075.20;;;;;;5055233;28;20072;-78
2023/03/17 11:31:57;;;;;;;13.43;4.82;;;410.50;1075.20;;;;;;5069701;28;19931;-80
2023/03/17 11:34:36;;;;;;;10.27;3.45;;;410.50;1100.80;;;;;;4958976;28;20133;-79
2023/03/17 11:37:13;;;;;;;7.93;3.95;;;435.30;1049.60;;;;;;4974524;28;20058;-79
2023/03/17 11:40:10;;;;;;;6.53;3.20;;;435.40;1024.00;;;;;;4958225;28;20041;-79
2023/03/17 11:42:55;;;;;;;5.95;3.28;;;435.60;1024.00;;;;;;4958449;28;20094;-77
2023/03/17 11:45:53;;;;;;;6.38;3.53;;;435.60;998.40;;;;;;4973270;28;20023;-82
2023/03/17 11:48:40;;;;;;;5.60;3.20;;;435.90;998.40;;;;;;4959965;28;20041;-80
2023/03/17 11:51:09;;;;;;;7.82;3.78;;;435.70;998.40;;;;;;4960563;28;20058;-80
2023/03/17 11:53:46;;;;;;;7.03;3.63;;;435.80;998.40;;;;;;4975183;28;20121;-79
2023/03/17 11:56:19;;;;;;;7.82;3.20;;;435.70;1024.00;;;;;;4958642;28;20104;-80
2023/03/17 11:58:48;;;;;;;9.95;5.60;;;436.00;998.40;;;;;;4959179;28;20066;-81
2023/03/17 12:01:26;;;;;;;10.25;5.03;;;435.70;998.40;;;;;;4958891;28;20034;-82
2023/03/17 12:04:00;;;;;;;8.63;3.90;;;435.90;1024.00;;;;;;4968266;28;20756;-81
2023/03/17 12:06:31;;;;;;;8.93;3.95;;;436.10;998.40;;;;;;4975179;28;20030;-84
2023/03/17 12:08:59;;;;;;;11.10;4.32;;;436.10;998.40;;;;;;4974318;28;20085;-84
2023/03/17 12:11:28;;;;;;;7.28;3.80;;;435.80;1024.00;;;;;;5015763;28;20513;-85
2023/03/17 12:14:12;;;;;;;9.10;4.50;;;435.90;998.40;;;;;;5052481;28;20036;-84
2023/03/17 12:16:45;;;;;;;12.50;4.32;;;436.00;998.40;;;;;;5057701;28;20052;-83
2023/03/17 12:19:27;;;;;;;6.63;3.25;;;436.10;972.80;;;;;;5075555;28;20060;-83
2023/03/17 12:22:31;;;;;;;11.27;4.40;;;460.80;972.80;;;;;;5067444;28;20029;-81
2023/03/17 12:25:03;;;;;;;7.38;3.72;;;436.00;972.80;;;;;;5007416;28;20061;-79
2023/03/17 12:27:35;;;;;;;9.23;4.05;;;435.80;998.40;;;;;;4996843;28;20034;-78
2023/03/17 12:30:13;;;;;;;7.70;4.20;;;435.90;998.40;;;;;;5014312;28;20050;-84
2023/03/17 12:32:57;;;;;;;8.65;4.15;;;435.90;972.80;;;;;;5012893;28;20522;-83
2023/03/17 12:35:27;;;;;;;9.02;4.05;;;435.90;972.80;;;;;;5010678;28;20145;-83
2023/03/17 12:37:56;;;;;;;8.05;3.13;;;436.10;947.20;;;;;;4997296;28;20022;-81
2023/03/17 12:40:31;;;;;;;11.52;4.57;;;436.10;947.20;;;;;;4996931;28;20141;-80